sensor_id;sensor_type;location;lat;lon;timestamp;P1;durP1;ratioP1;P2;durP2;ratioP2
211;SDS011;16228;48.800;9.002;2023-07-20T00:02:15;3.67;;;2.10;;
211;SDS011;16228;48.800;9.002;2023-07-20T00:04:42;3.50;;;2.00;;
211;SDS011;16228;48.800;9.002;2023-07-20T00:07:09;2.27;;;2.07;;
211;SDS011;16228;48.800;9.002;2023-07-20T00:09:36;2.27;;;1.80;;
211;SDS011;16228;48.800;9.002;2023-07-20T00:12:04;2.60;;;1.70;;
211;SDS011;16228;48.800;9.002;2023-07-20T00:14:32;3.00;;;1.70;;
211;SDS011;16228;48.800;9.002;2023-07-20T00:16:59;1.90;;;1.67;;
211;SDS011;16228;48.800;9.002;2023-07-20T00:19:28;2.63;;;1.60;;
211;SDS011;16228;48.800;9.002;2023-07-20T00:21:57;1.80;;;1.63;;
211;SDS011;16228;48.800;9.002;2023-07-20T00:24:24;2.03;;;1.80;;
211;SDS011;16228;48.800;9.002;2023-07-20T00:26:51;1.80;;;1.70;;
211;SDS011;16228;48.800;9.002;2023-07-20T00:29:18;2.67;;;2.00;;
211;SDS011;16228;48.800;9.002;2023-07-20T00:31:45;3.40;;;1.90;;
211;SDS011;16228;48.800;9.002;2023-07-20T00:34:13;3.20;;;2.13;;
211;SDS011;16228;48.800;9.002;2023-07-20T00:36:41;2.43;;;1.93;;
211;SDS011;16228;48.800;9.002;2023-07-20T00:39:08;3.37;;;2.23;;
211;SDS011;16228;48.800;9.002;2023-07-20T00:41:36;2.67;;;2.20;;
211;SDS011;16228;48.800;9.002;2023-07-20T00:44:03;5.27;;;2.00;;
211;SDS011;16228;48.800;9.002;2023-07-20T00:46:30;2.97;;;1.90;;
211;SDS011;16228;48.800;9.002;2023-07-20T00:48:58;2.67;;;1.93;;
211;SDS011;16228;48.800;9.002;2023-07-20T00:51:26;3.30;;;2.17;;
211;SDS011;16228;48.800;9.002;2023-07-20T00:53:55;3.53;;;1.90;;
211;SDS011;16228;48.800;9.002;2023-07-20T00:56:22;2.80;;;1.90;;
211;SDS011;16228;48.800;9.002;2023-07-20T00:58:49;2.27;;;1.93;;
211;SDS011;16228;48.800;9.002;2023-07-20T01:01:17;4.00;;;2.30;;
211;SDS011;16228;48.800;9.002;2023-07-20T01:03:44;3.57;;;2.17;;
211;SDS011;16228;48.800;9.002;2023-07-20T01:06:14;2.70;;;2.30;;
211;SDS011;16228;48.800;9.002;2023-07-20T01:08:55;2.93;;;2.10;;
211;SDS011;16228;48.800;9.002;2023-07-20T01:11:31;3.60;;;2.47;;
211;SDS011;16228;48.800;9.002;2023-07-20T01:14:04;4.67;;;3.03;;
211;SDS011;16228;48.800;9.002;2023-07-20T01:16:32;4.40;;;2.50;;
211;SDS011;16228;48.800;9.002;2023-07-20T01:18:59;2.93;;;2.47;;
211;SDS011;16228;48.800;9.002;2023-07-20T01:21:29;2.80;;;2.30;;
211;SDS011;16228;48.800;9.002;2023-07-20T01:27:33;5.50;;;2.20;;
211;SDS011;16228;48.800;9.002;2023-07-20T01:30:22;2.93;;;2.17;;
211;SDS011;16228;48.800;9.002;2023-07-20T01:33:03;3.27;;;2.03;;
211;SDS011;16228;48.800;9.002;2023-07-20T01:35:31;4.17;;;2.37;;
211;SDS011;16228;48.800;9.002;2023-07-20T01:38:00;2.83;;;2.30;;
211;SDS011;16228;48.800;9.002;2023-07-20T01:40:28;4.10;;;2.90;;
211;SDS011;16228;48.800;9.002;2023-07-20T01:42:56;2.20;;;2.10;;
211;SDS011;16228;48.800;9.002;2023-07-20T01:45:23;3.00;;;2.50;;
211;SDS011;16228;48.800;9.002;2023-07-20T01:47:52;3.97;;;3.63;;
211;SDS011;16228;48.800;9.002;2023-07-20T01:50:20;4.33;;;3.73;;
211;SDS011;16228;48.800;9.002;2023-07-20T01:52:47;4.53;;;4.13;;
211;SDS011;16228;48.800;9.002;2023-07-20T01:55:15;4.83;;;4.43;;
211;SDS011;16228;48.800;9.002;2023-07-20T01:57:42;4.83;;;4.53;;
211;SDS011;16228;48.800;9.002;2023-07-20T02:00:09;5.77;;;5.37;;
211;SDS011;16228;48.800;9.002;2023-07-20T02:02:37;7.40;;;6.87;;
211;SDS011;16228;48.800;9.002;2023-07-20T02:05:05;7.77;;;7.17;;
211;SDS011;16228;48.800;9.002;2023-07-20T02:07:34;7.10;;;5.07;;
211;SDS011;16228;48.800;9.002;2023-07-20T02:10:01;7.57;;;7.17;;
211;SDS011;16228;48.800;9.002;2023-07-20T02:12:29;9.40;;;9.00;;
211;SDS011;16228;48.800;9.002;2023-07-20T02:14:56;4.93;;;4.53;;
211;SDS011;16228;48.800;9.002;2023-07-20T02:17:23;7.33;;;6.67;;
211;SDS011;16228;48.800;9.002;2023-07-20T02:19:50;7.77;;;7.37;;
211;SDS011;16228;48.800;9.002;2023-07-20T02:22:18;8.00;;;7.47;;
211;SDS011;16228;48.800;9.002;2023-07-20T02:24:47;8.43;;;7.63;;
211;SDS011;16228;48.800;9.002;2023-07-20T02:27:14;6.67;;;6.30;;
211;SDS011;16228;48.800;9.002;2023-07-20T02:29:41;6.83;;;6.33;;
211;SDS011;16228;48.800;9.002;2023-07-20T02:32:09;7.10;;;6.63;;
211;SDS011;16228;48.800;9.002;2023-07-20T02:34:36;6.87;;;6.40;;
211;SDS011;16228;48.800;9.002;2023-07-20T02:37:03;7.50;;;6.80;;
211;SDS011;16228;48.800;9.002;2023-07-20T02:39:31;6.63;;;6.23;;
211;SDS011;16228;48.800;9.002;2023-07-20T02:42:00;6.43;;;5.80;;
211;SDS011;16228;48.800;9.002;2023-07-20T02:44:27;6.13;;;5.63;;
211;SDS011;16228;48.800;9.002;2023-07-20T02:46:54;6.83;;;6.23;;
211;SDS011;16228;48.800;9.002;2023-07-20T02:49:21;7.17;;;6.57;;
211;SDS011;16228;48.800;9.002;2023-07-20T02:51:48;6.20;;;5.63;;
211;SDS011;16228;48.800;9.002;2023-07-20T02:54:15;6.60;;;6.03;;
211;SDS011;16228;48.800;9.002;2023-07-20T02:56:42;6.63;;;6.20;;
211;SDS011;16228;48.800;9.002;2023-07-20T02:59:11;6.53;;;6.13;;
211;SDS011;16228;48.800;9.002;2023-07-20T03:01:38;6.87;;;5.73;;
211;SDS011;16228;48.800;9.002;2023-07-20T03:04:07;5.00;;;4.60;;
211;SDS011;16228;48.800;9.002;2023-07-20T03:06:35;4.70;;;4.20;;
211;SDS011;16228;48.800;9.002;2023-07-20T03:09:02;6.57;;;5.87;;
211;SDS011;16228;48.800;9.002;2023-07-20T03:11:29;5.27;;;4.87;;
211;SDS011;16228;48.800;9.002;2023-07-20T03:13:58;5.77;;;5.37;;
211;SDS011;16228;48.800;9.002;2023-07-20T03:16:27;7.07;;;6.43;;
211;SDS011;16228;48.800;9.002;2023-07-20T03:18:54;6.30;;;5.90;;
211;SDS011;16228;48.800;9.002;2023-07-20T03:21:21;4.10;;;3.70;;
211;SDS011;16228;48.800;9.002;2023-07-20T03:23:48;6.30;;;5.77;;
211;SDS011;16228;48.800;9.002;2023-07-20T03:26:15;4.03;;;3.70;;
211;SDS011;16228;48.800;9.002;2023-07-20T03:28:42;8.63;;;5.93;;
211;SDS011;16228;48.800;9.002;2023-07-20T03:31:09;6.13;;;5.57;;
211;SDS011;16228;48.800;9.002;2023-07-20T03:33:38;5.13;;;4.47;;
211;SDS011;16228;48.800;9.002;2023-07-20T03:36:05;4.50;;;4.10;;
211;SDS011;16228;48.800;9.002;2023-07-20T03:38:33;6.67;;;6.17;;
211;SDS011;16228;48.800;9.002;2023-07-20T03:41:00;4.77;;;4.37;;
211;SDS011;16228;48.800;9.002;2023-07-20T03:43:27;6.37;;;5.83;;
211;SDS011;16228;48.800;9.002;2023-07-20T03:45:55;5.73;;;5.23;;
211;SDS011;16228;48.800;9.002;2023-07-20T03:48:23;5.23;;;4.40;;
211;SDS011;16228;48.800;9.002;2023-07-20T03:50:52;9.23;;;5.47;;
211;SDS011;16228;48.800;9.002;2023-07-20T03:53:20;4.47;;;4.07;;
211;SDS011;16228;48.800;9.002;2023-07-20T03:55:47;5.53;;;5.13;;
211;SDS011;16228;48.800;9.002;2023-07-20T03:58:15;6.53;;;3.53;;
211;SDS011;16228;48.800;9.002;2023-07-20T04:00:44;6.13;;;5.57;;
211;SDS011;16228;48.800;9.002;2023-07-20T04:03:12;5.00;;;4.60;;
211;SDS011;16228;48.800;9.002;2023-07-20T04:05:39;5.07;;;4.67;;
211;SDS011;16228;48.800;9.002;2023-07-20T04:08:08;6.17;;;5.57;;
211;SDS011;16228;48.800;9.002;2023-07-20T04:10:36;6.07;;;5.57;;
211;SDS011;16228;48.800;9.002;2023-07-20T04:13:03;6.00;;;5.23;;
211;SDS011;16228;48.800;9.002;2023-07-20T04:15:31;5.90;;;5.50;;
211;SDS011;16228;48.800;9.002;2023-07-20T04:17:58;5.50;;;4.47;;
211;SDS011;16228;48.800;9.002;2023-07-20T04:20:26;3.90;;;3.60;;
211;SDS011;16228;48.800;9.002;2023-07-20T04:22:53;4.00;;;3.70;;
211;SDS011;16228;48.800;9.002;2023-07-20T04:25:22;5.37;;;4.10;;
211;SDS011;16228;48.800;9.002;2023-07-20T04:27:49;3.73;;;3.40;;
211;SDS011;16228;48.800;9.002;2023-07-20T04:30:17;4.13;;;2.70;;
211;SDS011;16228;48.800;9.002;2023-07-20T04:32:45;3.73;;;2.83;;
211;SDS011;16228;48.800;9.002;2023-07-20T04:35:16;3.10;;;2.73;;
211;SDS011;16228;48.800;9.002;2023-07-20T04:37:44;5.27;;;2.70;;
211;SDS011;16228;48.800;9.002;2023-07-20T04:40:12;4.83;;;2.30;;
211;SDS011;16228;48.800;9.002;2023-07-20T04:42:41;4.13;;;2.87;;
211;SDS011;16228;48.800;9.002;2023-07-20T04:45:08;3.23;;;2.43;;
211;SDS011;16228;48.800;9.002;2023-07-20T04:47:36;5.33;;;2.63;;
211;SDS011;16228;48.800;9.002;2023-07-20T04:50:03;3.93;;;2.60;;
211;SDS011;16228;48.800;9.002;2023-07-20T04:52:31;3.17;;;2.63;;
211;SDS011;16228;48.800;9.002;2023-07-20T04:54:58;4.80;;;2.83;;
211;SDS011;16228;48.800;9.002;2023-07-20T04:57:25;2.90;;;2.60;;
211;SDS011;16228;48.800;9.002;2023-07-20T04:59:54;4.57;;;2.50;;
211;SDS011;16228;48.800;9.002;2023-07-20T05:02:21;3.47;;;2.10;;
211;SDS011;16228;48.800;9.002;2023-07-20T05:04:48;3.90;;;2.03;;
211;SDS011;16228;48.800;9.002;2023-07-20T05:07:15;4.57;;;2.27;;
211;SDS011;16228;48.800;9.002;2023-07-20T05:09:42;3.17;;;2.23;;
211;SDS011;16228;48.800;9.002;2023-07-20T05:12:09;3.37;;;2.07;;
211;SDS011;16228;48.800;9.002;2023-07-20T05:14:37;2.30;;;1.87;;
211;SDS011;16228;48.800;9.002;2023-07-20T05:17:06;4.07;;;2.80;;
211;SDS011;16228;48.800;9.002;2023-07-20T05:19:33;4.63;;;2.37;;
211;SDS011;16228;48.800;9.002;2023-07-20T05:22:00;2.80;;;2.40;;
211;SDS011;16228;48.800;9.002;2023-07-20T05:24:28;5.87;;;2.33;;
211;SDS011;16228;48.800;9.002;2023-07-20T05:26:55;3.07;;;2.00;;
211;SDS011;16228;48.800;9.002;2023-07-20T05:29:22;3.70;;;2.27;;
211;SDS011;16228;48.800;9.002;2023-07-20T05:31:49;3.60;;;1.93;;
211;SDS011;16228;48.800;9.002;2023-07-20T05:34:18;3.87;;;2.30;;
211;SDS011;16228;48.800;9.002;2023-07-20T05:36:46;2.33;;;1.90;;
211;SDS011;16228;48.800;9.002;2023-07-20T05:39:13;3.63;;;1.90;;
211;SDS011;16228;48.800;9.002;2023-07-20T05:41:41;3.13;;;1.77;;
211;SDS011;16228;48.800;9.002;2023-07-20T05:44:08;3.33;;;2.10;;
211;SDS011;16228;48.800;9.002;2023-07-20T05:46:35;2.40;;;2.00;;
211;SDS011;16228;48.800;9.002;2023-07-20T05:49:02;2.37;;;1.83;;
211;SDS011;16228;48.800;9.002;2023-07-20T05:51:31;1.97;;;1.73;;
211;SDS011;16228;48.800;9.002;2023-07-20T05:53:58;3.17;;;2.03;;
211;SDS011;16228;48.800;9.002;2023-07-20T05:56:25;4.30;;;2.30;;
211;SDS011;16228;48.800;9.002;2023-07-20T05:58:52;2.30;;;2.10;;
211;SDS011;16228;48.800;9.002;2023-07-20T06:01:20;3.67;;;3.30;;
211;SDS011;16228;48.800;9.002;2023-07-20T06:03:47;4.23;;;2.17;;
211;SDS011;16228;48.800;9.002;2023-07-20T06:06:14;2.67;;;2.20;;
211;SDS011;16228;48.800;9.002;2023-07-20T06:08:43;3.13;;;2.53;;
211;SDS011;16228;48.800;9.002;2023-07-20T06:11:10;3.00;;;1.90;;
211;SDS011;16228;48.800;9.002;2023-07-20T06:13:37;3.47;;;2.10;;
211;SDS011;16228;48.800;9.002;2023-07-20T06:16:04;3.40;;;2.20;;
211;SDS011;16228;48.800;9.002;2023-07-20T06:18:31;3.47;;;2.27;;
211;SDS011;16228;48.800;9.002;2023-07-20T06:20:58;2.93;;;2.30;;
211;SDS011;16228;48.800;9.002;2023-07-20T06:23:25;2.47;;;2.13;;
211;SDS011;16228;48.800;9.002;2023-07-20T06:25:54;4.67;;;2.03;;
211;SDS011;16228;48.800;9.002;2023-07-20T06:28:21;3.93;;;1.90;;
211;SDS011;16228;48.800;9.002;2023-07-20T06:30:48;4.30;;;2.60;;
211;SDS011;16228;48.800;9.002;2023-07-20T06:33:16;3.20;;;2.03;;
211;SDS011;16228;48.800;9.002;2023-07-20T06:35:43;3.47;;;2.13;;
211;SDS011;16228;48.800;9.002;2023-07-20T06:38:10;3.40;;;2.40;;
211;SDS011;16228;48.800;9.002;2023-07-20T06:40:37;3.93;;;2.20;;
211;SDS011;16228;48.800;9.002;2023-07-20T06:43:06;2.47;;;2.00;;
211;SDS011;16228;48.800;9.002;2023-07-20T06:45:33;3.97;;;2.20;;
211;SDS011;16228;48.800;9.002;2023-07-20T06:48:00;3.00;;;1.60;;
211;SDS011;16228;48.800;9.002;2023-07-20T06:50:27;5.50;;;1.97;;
211;SDS011;16228;48.800;9.002;2023-07-20T06:52:55;5.90;;;2.03;;
211;SDS011;16228;48.800;9.002;2023-07-20T06:55:24;3.33;;;2.10;;
211;SDS011;16228;48.800;9.002;2023-07-20T06:57:51;2.27;;;1.60;;
211;SDS011;16228;48.800;9.002;2023-07-20T07:00:20;3.60;;;2.00;;
211;SDS011;16228;48.800;9.002;2023-07-20T07:02:47;4.90;;;1.60;;
211;SDS011;16228;48.800;9.002;2023-07-20T07:05:14;3.00;;;1.90;;
211;SDS011;16228;48.800;9.002;2023-07-20T07:07:41;3.20;;;2.10;;
211;SDS011;16228;48.800;9.002;2023-07-20T07:10:09;3.13;;;1.70;;
211;SDS011;16228;48.800;9.002;2023-07-20T07:12:36;2.50;;;1.70;;
211;SDS011;16228;48.800;9.002;2023-07-20T07:15:03;6.50;;;1.98;;
211;SDS011;16228;48.800;9.002;2023-07-20T07:17:33;2.58;;;1.75;;
211;SDS011;16228;48.800;9.002;2023-07-20T07:20:01;3.05;;;1.70;;
211;SDS011;16228;48.800;9.002;2023-07-20T07:22:29;3.88;;;2.20;;
211;SDS011;16228;48.800;9.002;2023-07-20T07:24:56;1.95;;;1.70;;
211;SDS011;16228;48.800;9.002;2023-07-20T07:27:23;4.30;;;1.88;;
211;SDS011;16228;48.800;9.002;2023-07-20T07:29:50;2.13;;;1.70;;
211;SDS011;16228;48.800;9.002;2023-07-20T07:32:18;2.75;;;1.80;;
211;SDS011;16228;48.800;9.002;2023-07-20T07:34:46;2.22;;;1.70;;
211;SDS011;16228;48.800;9.002;2023-07-20T07:37:14;1.85;;;1.50;;
211;SDS011;16228;48.800;9.002;2023-07-20T07:39:42;2.58;;;1.90;;
211;SDS011;16228;48.800;9.002;2023-07-20T07:42:09;4.38;;;2.08;;
211;SDS011;16228;48.800;9.002;2023-07-20T07:44:37;3.42;;;2.25;;
211;SDS011;16228;48.800;9.002;2023-07-20T07:47:05;4.75;;;1.95;;
211;SDS011;16228;48.800;9.002;2023-07-20T07:49:32;2.80;;;1.80;;
211;SDS011;16228;48.800;9.002;2023-07-20T07:52:01;2.57;;;1.90;;
211;SDS011;16228;48.800;9.002;2023-07-20T07:54:28;2.20;;;1.70;;
211;SDS011;16228;48.800;9.002;2023-07-20T07:56:56;3.47;;;2.00;;
211;SDS011;16228;48.800;9.002;2023-07-20T07:59:23;3.80;;;2.27;;
211;SDS011;16228;48.800;9.002;2023-07-20T08:01:50;3.30;;;1.93;;
211;SDS011;16228;48.800;9.002;2023-07-20T08:04:17;2.60;;;2.20;;
211;SDS011;16228;48.800;9.002;2023-07-20T08:06:44;2.87;;;1.70;;
211;SDS011;16228;48.800;9.002;2023-07-20T08:09:13;3.20;;;1.80;;
211;SDS011;16228;48.800;9.002;2023-07-20T08:11:40;2.30;;;1.77;;
211;SDS011;16228;48.800;9.002;2023-07-20T08:14:07;1.93;;;1.50;;
211;SDS011;16228;48.800;9.002;2023-07-20T08:16:34;2.27;;;1.80;;
211;SDS011;16228;48.800;9.002;2023-07-20T08:19:02;3.17;;;1.80;;
211;SDS011;16228;48.800;9.002;2023-07-20T08:21:29;5.15;;;1.95;;
211;SDS011;16228;48.800;9.002;2023-07-20T08:23:56;2.45;;;1.77;;
211;SDS011;16228;48.800;9.002;2023-07-20T08:26:24;2.22;;;1.88;;
211;SDS011;16228;48.800;9.002;2023-07-20T08:28:52;1.77;;;1.67;;
211;SDS011;16228;48.800;9.002;2023-07-20T08:31:19;4.45;;;1.83;;
211;SDS011;16228;48.800;9.002;2023-07-20T08:33:46;2.08;;;1.85;;
211;SDS011;16228;48.800;9.002;2023-07-20T08:36:13;2.33;;;2.08;;
211;SDS011;16228;48.800;9.002;2023-07-20T08:38:41;4.32;;;1.67;;
211;SDS011;16228;48.800;9.002;2023-07-20T08:41:08;3.13;;;2.00;;
211;SDS011;16228;48.800;9.002;2023-07-20T08:43:37;1.53;;;1.40;;
211;SDS011;16228;48.800;9.002;2023-07-20T08:46:09;1.97;;;1.50;;
211;SDS011;16228;48.800;9.002;2023-07-20T08:48:39;1.70;;;1.60;;
211;SDS011;16228;48.800;9.002;2023-07-20T08:51:09;1.48;;;1.33;;
211;SDS011;16228;48.800;9.002;2023-07-20T08:53:38;3.10;;;1.60;;
211;SDS011;16228;48.800;9.002;2023-07-20T08:56:05;1.92;;;1.70;;
211;SDS011;16228;48.800;9.002;2023-07-20T08:58:37;4.47;;;1.80;;
211;SDS011;16228;48.800;9.002;2023-07-20T09:01:07;1.85;;;1.75;;
211;SDS011;16228;48.800;9.002;2023-07-20T09:03:35;3.47;;;1.95;;
211;SDS011;16228;48.800;9.002;2023-07-20T09:06:04;3.37;;;1.90;;
211;SDS011;16228;48.800;9.002;2023-07-20T09:08:32;3.13;;;2.50;;
211;SDS011;16228;48.800;9.002;2023-07-20T09:10:59;2.72;;;1.48;;
211;SDS011;16228;48.800;9.002;2023-07-20T09:13:26;5.72;;;2.17;;
211;SDS011;16228;48.800;9.002;2023-07-20T09:15:54;1.80;;;1.38;;
211;SDS011;16228;48.800;9.002;2023-07-20T09:18:25;1.70;;;1.60;;
211;SDS011;16228;48.800;9.002;2023-07-20T09:20:53;2.28;;;1.40;;
211;SDS011;16228;48.800;9.002;2023-07-20T09:23:29;2.15;;;1.70;;
211;SDS011;16228;48.800;9.002;2023-07-20T09:25:57;1.40;;;1.30;;
211;SDS011;16228;48.800;9.002;2023-07-20T09:28:25;2.20;;;1.40;;
211;SDS011;16228;48.800;9.002;2023-07-20T09:30:52;2.85;;;1.80;;
211;SDS011;16228;48.800;9.002;2023-07-20T09:33:24;1.90;;;1.38;;
211;SDS011;16228;48.800;9.002;2023-07-20T09:35:51;2.15;;;1.58;;
211;SDS011;16228;48.800;9.002;2023-07-20T09:38:18;3.22;;;1.58;;
211;SDS011;16228;48.800;9.002;2023-07-20T09:40:45;1.88;;;1.58;;
211;SDS011;16228;48.800;9.002;2023-07-20T09:43:15;2.75;;;1.33;;
211;SDS011;16228;48.800;9.002;2023-07-20T09:45:42;3.85;;;1.58;;
211;SDS011;16228;48.800;9.002;2023-07-20T09:48:11;1.70;;;1.60;;
211;SDS011;16228;48.800;9.002;2023-07-20T09:50:39;1.85;;;1.50;;
211;SDS011;16228;48.800;9.002;2023-07-20T09:53:09;1.95;;;1.52;;
211;SDS011;16228;48.800;9.002;2023-07-20T09:55:39;3.78;;;1.88;;
211;SDS011;16228;48.800;9.002;2023-07-20T09:58:08;1.40;;;1.30;;
211;SDS011;16228;48.800;9.002;2023-07-20T10:00:36;2.13;;;1.52;;
211;SDS011;16228;48.800;9.002;2023-07-20T10:03:05;1.77;;;1.63;;
211;SDS011;16228;48.800;9.002;2023-07-20T10:05:35;1.77;;;1.40;;
211;SDS011;16228;48.800;9.002;2023-07-20T10:08:05;1.70;;;1.60;;
211;SDS011;16228;48.800;9.002;2023-07-20T10:10:38;3.33;;;1.70;;
211;SDS011;16228;48.800;9.002;2023-07-20T10:13:08;3.45;;;1.95;;
211;SDS011;16228;48.800;9.002;2023-07-20T10:15:43;1.30;;;1.20;;
211;SDS011;16228;48.800;9.002;2023-07-20T10:18:17;2.17;;;1.70;;
211;SDS011;16228;48.800;9.002;2023-07-20T10:20:51;1.70;;;1.50;;
211;SDS011;16228;48.800;9.002;2023-07-20T10:23:20;1.70;;;1.60;;
211;SDS011;16228;48.800;9.002;2023-07-20T10:25:48;2.40;;;1.30;;
211;SDS011;16228;48.800;9.002;2023-07-20T10:28:16;1.45;;;1.30;;
211;SDS011;16228;48.800;9.002;2023-07-20T10:30:44;1.65;;;1.52;;
211;SDS011;16228;48.800;9.002;2023-07-20T10:33:12;2.58;;;1.52;;
211;SDS011;16228;48.800;9.002;2023-07-20T10:35:53;1.20;;;1.10;;
211;SDS011;16228;48.800;9.002;2023-07-20T10:41:15;1.20;;;1.00;;
211;SDS011;16228;48.800;9.002;2023-07-20T10:43:43;1.30;;;1.13;;
211;SDS011;16228;48.800;9.002;2023-07-20T10:46:11;1.42;;;1.17;;
211;SDS011;16228;48.800;9.002;2023-07-20T10:51:29;2.33;;;1.40;;
211;SDS011;16228;48.800;9.002;2023-07-20T10:53:57;1.85;;;1.45;;
211;SDS011;16228;48.800;9.002;2023-07-20T10:56:26;1.40;;;1.30;;
211;SDS011;16228;48.800;9.002;2023-07-20T10:58:58;1.60;;;1.50;;
211;SDS011;16228;48.800;9.002;2023-07-20T11:01:29;2.72;;;1.25;;
211;SDS011;16228;48.800;9.002;2023-07-20T11:03:58;1.38;;;1.27;;
211;SDS011;16228;48.800;9.002;2023-07-20T11:06:31;2.17;;;1.40;;
211;SDS011;16228;48.800;9.002;2023-07-20T11:11:50;1.58;;;1.48;;
211;SDS011;16228;48.800;9.002;2023-07-20T11:14:36;1.58;;;1.10;;
211;SDS011;16228;48.800;9.002;2023-07-20T11:17:10;2.30;;;1.30;;
211;SDS011;16228;48.800;9.002;2023-07-20T11:19:40;1.73;;;1.50;;
211;SDS011;16228;48.800;9.002;2023-07-20T11:22:08;2.45;;;1.00;;
211;SDS011;16228;48.800;9.002;2023-07-20T11:24:38;1.52;;;1.27;;
211;SDS011;16228;48.800;9.002;2023-07-20T11:27:06;1.30;;;1.20;;
211;SDS011;16228;48.800;9.002;2023-07-20T11:29:34;1.80;;;1.30;;
211;SDS011;16228;48.800;9.002;2023-07-20T11:32:01;1.35;;;1.20;;
211;SDS011;16228;48.800;9.002;2023-07-20T11:34:30;2.38;;;2.08;;
211;SDS011;16228;48.800;9.002;2023-07-20T11:36:58;3.78;;;1.40;;
211;SDS011;16228;48.800;9.002;2023-07-20T11:39:27;1.55;;;1.45;;
211;SDS011;16228;48.800;9.002;2023-07-20T11:41:56;2.45;;;1.25;;
211;SDS011;16228;48.800;9.002;2023-07-20T11:44:24;2.40;;;1.63;;
211;SDS011;16228;48.800;9.002;2023-07-20T11:46:59;1.75;;;1.52;;
211;SDS011;16228;48.800;9.002;2023-07-20T11:49:28;3.45;;;1.45;;
211;SDS011;16228;48.800;9.002;2023-07-20T11:51:56;2.40;;;1.45;;
211;SDS011;16228;48.800;9.002;2023-07-20T11:54:24;2.42;;;1.70;;
211;SDS011;16228;48.800;9.002;2023-07-20T11:56:53;1.58;;;1.48;;
211;SDS011;16228;48.800;9.002;2023-07-20T11:59:21;1.70;;;1.60;;
211;SDS011;16228;48.800;9.002;2023-07-20T12:01:49;2.08;;;1.23;;
211;SDS011;16228;48.800;9.002;2023-07-20T12:04:16;2.78;;;1.45;;
211;SDS011;16228;48.800;9.002;2023-07-20T12:06:44;1.50;;;1.40;;
211;SDS011;16228;48.800;9.002;2023-07-20T12:09:13;1.63;;;1.50;;
211;SDS011;16228;48.800;9.002;2023-07-20T12:11:43;1.25;;;1.10;;
211;SDS011;16228;48.800;9.002;2023-07-20T12:14:11;2.83;;;1.55;;
211;SDS011;16228;48.800;9.002;2023-07-20T12:16:38;1.40;;;1.30;;
211;SDS011;16228;48.800;9.002;2023-07-20T12:19:06;1.30;;;1.20;;
211;SDS011;16228;48.800;9.002;2023-07-20T12:21:34;1.80;;;1.50;;
211;SDS011;16228;48.800;9.002;2023-07-20T12:24:03;2.75;;;1.50;;
211;SDS011;16228;48.800;9.002;2023-07-20T12:26:31;1.33;;;1.23;;
211;SDS011;16228;48.800;9.002;2023-07-20T12:29:01;2.45;;;1.48;;
211;SDS011;16228;48.800;9.002;2023-07-20T12:31:29;1.52;;;1.42;;
211;SDS011;16228;48.800;9.002;2023-07-20T12:33:57;1.60;;;1.50;;
211;SDS011;16228;48.800;9.002;2023-07-20T12:36:24;2.00;;;1.60;;
211;SDS011;16228;48.800;9.002;2023-07-20T12:38:52;2.28;;;1.50;;
211;SDS011;16228;48.800;9.002;2023-07-20T12:41:20;2.47;;;1.52;;
211;SDS011;16228;48.800;9.002;2023-07-20T12:43:47;1.60;;;1.50;;
211;SDS011;16228;48.800;9.002;2023-07-20T12:46:16;1.42;;;1.33;;
211;SDS011;16228;48.800;9.002;2023-07-20T12:48:43;1.50;;;1.40;;
211;SDS011;16228;48.800;9.002;2023-07-20T12:51:11;2.20;;;1.30;;
211;SDS011;16228;48.800;9.002;2023-07-20T12:53:38;2.15;;;1.50;;
211;SDS011;16228;48.800;9.002;2023-07-20T12:56:06;1.58;;;1.48;;
211;SDS011;16228;48.800;9.002;2023-07-20T12:58:33;1.60;;;1.15;;
211;SDS011;16228;48.800;9.002;2023-07-20T13:01:00;1.67;;;1.58;;
211;SDS011;16228;48.800;9.002;2023-07-20T13:03:29;1.80;;;1.70;;
211;SDS011;16228;48.800;9.002;2023-07-20T13:05:56;1.77;;;1.45;;
211;SDS011;16228;48.800;9.002;2023-07-20T13:08:23;1.60;;;1.50;;
211;SDS011;16228;48.800;9.002;2023-07-20T13:10:52;1.42;;;1.33;;
211;SDS011;16228;48.800;9.002;2023-07-20T13:13:19;2.75;;;1.70;;
211;SDS011;16228;48.800;9.002;2023-07-20T13:15:46;1.02;;;1.02;;
211;SDS011;16228;48.800;9.002;2023-07-20T13:18:14;1.92;;;1.55;;
211;SDS011;16228;48.800;9.002;2023-07-20T13:20:42;1.70;;;1.30;;
211;SDS011;16228;48.800;9.002;2023-07-20T13:23:09;2.05;;;1.90;;
211;SDS011;16228;48.800;9.002;2023-07-20T13:25:37;1.65;;;1.55;;
211;SDS011;16228;48.800;9.002;2023-07-20T13:28:04;1.70;;;1.45;;
211;SDS011;16228;48.800;9.002;2023-07-20T13:30:32;2.13;;;1.40;;
211;SDS011;16228;48.800;9.002;2023-07-20T13:32:59;2.33;;;1.77;;
211;SDS011;16228;48.800;9.002;2023-07-20T13:35:26;1.42;;;1.23;;
211;SDS011;16228;48.800;9.002;2023-07-20T13:37:55;1.80;;;1.38;;
211;SDS011;16228;48.800;9.002;2023-07-20T13:40:22;1.30;;;1.20;;
211;SDS011;16228;48.800;9.002;2023-07-20T13:42:49;1.40;;;1.30;;
211;SDS011;16228;48.800;9.002;2023-07-20T13:45:16;1.45;;;1.35;;
211;SDS011;16228;48.800;9.002;2023-07-20T13:47:44;2.78;;;1.83;;
211;SDS011;16228;48.800;9.002;2023-07-20T13:50:11;1.80;;;1.70;;
211;SDS011;16228;48.800;9.002;2023-07-20T13:52:38;3.13;;;1.45;;
211;SDS011;16228;48.800;9.002;2023-07-20T13:55:07;3.47;;;1.50;;
211;SDS011;16228;48.800;9.002;2023-07-20T13:57:35;1.70;;;1.57;;
211;SDS011;16228;48.800;9.002;2023-07-20T14:00:02;2.40;;;1.90;;
211;SDS011;16228;48.800;9.002;2023-07-20T14:02:30;1.73;;;1.63;;
211;SDS011;16228;48.800;9.002;2023-07-20T14:04:57;1.37;;;1.27;;
211;SDS011;16228;48.800;9.002;2023-07-20T14:07:25;1.77;;;1.67;;
211;SDS011;16228;48.800;9.002;2023-07-20T14:09:52;1.47;;;1.33;;
211;SDS011;16228;48.800;9.002;2023-07-20T14:12:20;3.53;;;1.43;;
211;SDS011;16228;48.800;9.002;2023-07-20T14:14:47;2.83;;;1.40;;
211;SDS011;16228;48.800;9.002;2023-07-20T14:17:15;2.17;;;1.90;;
211;SDS011;16228;48.800;9.002;2023-07-20T14:19:42;1.90;;;1.50;;
211;SDS011;16228;48.800;9.002;2023-07-20T14:22:09;1.53;;;1.43;;
211;SDS011;16228;48.800;9.002;2023-07-20T14:24:36;2.90;;;1.50;;
211;SDS011;16228;48.800;9.002;2023-07-20T14:27:04;2.17;;;1.77;;
211;SDS011;16228;48.800;9.002;2023-07-20T14:29:33;2.00;;;1.43;;
211;SDS011;16228;48.800;9.002;2023-07-20T14:32:01;1.40;;;1.30;;
211;SDS011;16228;48.800;9.002;2023-07-20T14:34:29;1.73;;;1.63;;
211;SDS011;16228;48.800;9.002;2023-07-20T14:36:58;1.57;;;1.30;;
211;SDS011;16228;48.800;9.002;2023-07-20T14:39:25;2.10;;;1.90;;
211;SDS011;16228;48.800;9.002;2023-07-20T14:41:53;2.07;;;1.97;;
211;SDS011;16228;48.800;9.002;2023-07-20T14:44:20;2.30;;;2.20;;
211;SDS011;16228;48.800;9.002;2023-07-20T14:46:48;2.07;;;1.87;;
211;SDS011;16228;48.800;9.002;2023-07-20T14:49:16;1.83;;;1.73;;
211;SDS011;16228;48.800;9.002;2023-07-20T14:51:43;2.57;;;2.37;;
211;SDS011;16228;48.800;9.002;2023-07-20T14:54:12;2.37;;;2.17;;
211;SDS011;16228;48.800;9.002;2023-07-20T14:56:39;2.77;;;2.57;;
211;SDS011;16228;48.800;9.002;2023-07-20T14:59:16;2.20;;;1.97;;
211;SDS011;16228;48.800;9.002;2023-07-20T15:01:44;2.33;;;2.13;;
211;SDS011;16228;48.800;9.002;2023-07-20T15:04:13;1.80;;;1.70;;
211;SDS011;16228;48.800;9.002;2023-07-20T15:06:40;2.00;;;1.50;;
211;SDS011;16228;48.800;9.002;2023-07-20T15:09:08;1.70;;;1.60;;
211;SDS011;16228;48.800;9.002;2023-07-20T15:11:35;2.07;;;1.97;;
211;SDS011;16228;48.800;9.002;2023-07-20T15:14:03;3.50;;;1.63;;
211;SDS011;16228;48.800;9.002;2023-07-20T15:16:30;2.10;;;1.80;;
211;SDS011;16228;48.800;9.002;2023-07-20T15:18:57;1.93;;;1.70;;
211;SDS011;16228;48.800;9.002;2023-07-20T15:21:25;2.93;;;2.57;;
211;SDS011;16228;48.800;9.002;2023-07-20T15:23:55;1.90;;;1.40;;
211;SDS011;16228;48.800;9.002;2023-07-20T15:26:23;1.63;;;1.53;;
211;SDS011;16228;48.800;9.002;2023-07-20T15:28:50;1.40;;;1.10;;
211;SDS011;16228;48.800;9.002;2023-07-20T15:31:17;3.33;;;1.60;;
211;SDS011;16228;48.800;9.002;2023-07-20T15:33:44;2.30;;;1.63;;